PWSweather.com
Personal Weather Stations
Station Observations
IROGLAN40
AalgaardNO 4330

AalgaardNO 4330

Lat: 58.773, Lon: 5.846

Elevation: 326

Station Type: Davis Vanatge Pro2

Latest ConditionsUpdated 5:50:02 AM GMT+01:01 Friday, Apr 27, 2018
Currently Today's Max Today's Min Today's Average
Temperature 40.5°F4.7°C 43.1°F6.2°C 40.2°F4.6°C 41.8°F5.4°C
Dew Point 38.1°F3.4°C 40.7°F4.8°C 37.8°F3.2°C 39.3°F4.1°C
Winds Calm Calm 4.6 mph NW7.4 kmh NW - 0.7 mph 1.1 kmh
Wind Gusts -- 5.8 mph9.3 kmh - -
Humidity 91% 91% 90% 91%
Pressure 29.66 in1004.4 mb 29.66 in1004.4 mb 29.63 in1003.4 mb -
Precipitation - 0.06 in1.5 mm - -
Hour Temp Dew Point Humidity Winds Wind Gusts Pressure Precip Precip Rate Daily Precip Total
05:50 AM 40.5°F4.7°C 38.1°F3.4°C 91% Calm Calm -- 29.66 in1004.4 mb - 0.00 in0.0 mm 0.06 in1.5 mm
05:40 AM 40.4°F4.7°C 38.0°F3.3°C 91% Calm Calm -- 29.66 in1004.4 mb - 0.00 in0.0 mm 0.06 in1.5 mm
05:30 AM 40.3°F4.6°C 37.9°F3.3°C 91% Calm Calm -- 29.66 in1004.4 mb - 0.00 in0.0 mm 0.06 in1.5 mm
05:20 AM 40.2°F4.6°C 37.8°F3.2°C 91% Calm Calm -- 29.66 in1004.4 mb - 0.00 in0.0 mm 0.06 in1.5 mm
05:10 AM 40.3°F4.6°C 37.9°F3.3°C 91% Calm Calm -- 29.66 in1004.4 mb - 0.00 in0.0 mm 0.06 in1.5 mm
05:00 AM 40.4°F4.7°C 38.0°F3.3°C 91% Calm Calm 2.3 mph3.7 kmh 29.66 in1004.4 mb - 0.00 in0.0 mm 0.06 in1.5 mm
04:50 AM 40.6°F4.8°C 38.2°F3.4°C 91% Calm Calm -- 29.65 in1004.1 mb - 0.00 in0.0 mm 0.06 in1.5 mm
04:40 AM 40.8°F4.9°C 38.4°F3.6°C 91% 2.3 mph W3.7 kmh W 3.5 mph5.6 kmh 29.65 in1004.1 mb - 0.00 in0.0 mm 0.06 in1.5 mm
04:30 AM 40.9°F4.9°C 38.5°F3.6°C 91% Calm Calm -- 29.65 in1004.1 mb - 0.00 in0.0 mm 0.06 in1.5 mm
04:20 AM 41.2°F5.1°C 38.8°F3.8°C 91% 2.3 mph W3.7 kmh W 2.3 mph3.7 kmh 29.65 in1004.1 mb - 0.00 in0.0 mm 0.06 in1.5 mm
04:10 AM 41.6°F5.3°C 39.2°F4.0°C 91% Calm Calm -- 29.65 in1004.1 mb - 0.00 in0.0 mm 0.06 in1.5 mm
04:00 AM 42.0°F5.6°C 39.6°F4.2°C 91% Calm Calm -- 29.65 in1004.1 mb - 0.00 in0.0 mm 0.06 in1.5 mm
03:50 AM 42.2°F5.7°C 39.8°F4.3°C 91% 1.2 mph SW1.9 kmh SW 1.2 mph1.9 kmh 29.65 in1004.1 mb - 0.00 in0.0 mm 0.06 in1.5 mm
03:40 AM 42.1°F5.6°C 39.7°F4.3°C 91% Calm Calm -- 29.64 in1003.7 mb - 0.00 in0.0 mm 0.06 in1.5 mm
03:30 AM 42.2°F5.7°C 39.7°F4.3°C 91% 2.3 mph WSW3.7 kmh WSW 3.5 mph5.6 kmh 29.64 in1003.7 mb - 0.00 in0.0 mm 0.06 in1.5 mm
03:20 AM 42.2°F5.7°C 39.8°F4.3°C 91% Calm Calm -- 29.64 in1003.7 mb - 0.00 in0.0 mm 0.06 in1.5 mm
03:10 AM 42.2°F5.7°C 39.7°F4.3°C 91% Calm Calm -- 29.64 in1003.7 mb - 0.00 in0.0 mm 0.06 in1.5 mm
03:00 AM 42.2°F5.7°C 39.8°F4.3°C 91% Calm Calm 2.3 mph3.7 kmh 29.64 in1003.7 mb - 0.00 in0.0 mm 0.06 in1.5 mm
02:50 AM 42.2°F5.7°C 39.8°F4.3°C 91% Calm Calm -- 29.64 in1003.7 mb - 0.00 in0.0 mm 0.06 in1.5 mm
02:40 AM 42.3°F5.7°C 39.9°F4.4°C 91% 1.2 mph NW1.9 kmh NW 3.5 mph5.6 kmh 29.64 in1003.7 mb - 0.00 in0.0 mm 0.06 in1.5 mm
02:30 AM 42.4°F5.8°C 40.0°F4.4°C 91% 1.2 mph W1.9 kmh W 2.3 mph3.7 kmh 29.64 in1003.7 mb - 0.00 in0.0 mm 0.06 in1.5 mm
02:20 AM 42.0°F5.6°C 39.5°F4.2°C 91% 4.6 mph NW7.4 kmh NW 5.8 mph9.3 kmh 29.64 in1003.7 mb - 0.01 in0.3 mm 0.06 in1.5 mm
02:10 AM 41.2°F5.1°C 38.4°F3.6°C 90% Calm Calm -- 29.64 in1003.7 mb - 0.01 in0.3 mm 0.06 in1.5 mm
02:00 AM 41.0°F5.0°C 38.3°F3.5°C 90% Calm Calm -- 29.64 in1003.7 mb - 0.00 in0.0 mm 0.05 in1.3 mm
01:50 AM 41.2°F5.1°C 38.5°F3.6°C 90% Calm Calm -- 29.64 in1003.7 mb - 0.00 in0.0 mm 0.05 in1.3 mm
01:40 AM 41.2°F5.1°C 38.5°F3.6°C 90% Calm Calm -- 29.64 in1003.7 mb - 0.00 in0.0 mm 0.05 in1.3 mm
01:30 AM 41.4°F5.2°C 38.7°F3.7°C 90% Calm Calm -- 29.64 in1003.7 mb - 0.01 in0.3 mm 0.05 in1.3 mm
01:20 AM 41.9°F5.5°C 39.2°F4.0°C 90% 1.2 mph S1.9 kmh S 2.3 mph3.7 kmh 29.64 in1003.7 mb - 0.04 in1.0 mm 0.04 in1.0 mm
01:10 AM 43.1°F6.2°C 40.7°F4.8°C 91% 2.3 mph SSW3.7 kmh SSW 3.5 mph5.6 kmh 29.64 in1003.7 mb - 0.00 in0.0 mm 0.00 in0.0 mm
01:00 AM 43.1°F6.2°C 40.4°F4.7°C 90% 1.2 mph E1.9 kmh E -- 29.63 in1003.4 mb - 0.00 in0.0 mm 0.00 in0.0 mm
12:50 AM 43.1°F6.2°C 40.4°F4.7°C 90% 1.2 mph SE1.9 kmh SE 3.5 mph5.6 kmh 29.63 in1003.4 mb - 0.00 in0.0 mm 0.00 in0.0 mm
12:40 AM 43.1°F6.2°C 40.4°F4.7°C 90% 1.2 mph ESE1.9 kmh ESE 2.3 mph3.7 kmh 29.63 in1003.4 mb - 0.00 in0.0 mm 0.00 in0.0 mm
12:30 AM 43.1°F6.2°C 40.7°F4.8°C 91% 1.2 mph SE1.9 kmh SE 4.6 mph7.4 kmh 29.63 in1003.4 mb - 0.00 in0.0 mm 0.00 in0.0 mm
12:20 AM 42.9°F6.1°C 40.2°F4.6°C 90% Calm Calm -- 29.63 in1003.4 mb - 0.00 in0.0 mm 0.00 in0.0 mm
12:10 AM 42.9°F6.1°C 40.5°F4.7°C 91% 2.3 mph ESE3.7 kmh ESE 5.8 mph9.3 kmh 29.63 in1003.4 mb - 0.00 in0.0 mm 0.00 in0.0 mm
12:00 AM 42.9°F6.1°C 40.2°F4.6°C 90% Calm Calm -- 29.63 in1003.4 mb - 0.00 in0.0 mm 0.00 in0.0 mm